Time;durP1;ratioP1;P1;durP2;ratioP2;P2;SDS_P1;SDS_P2;PMS_P1;PMS_P2;Temp;Humidity;BMP_temperature;BMP_pressure;BME280_temperature;BME280_humidity;BME280_pressure;Samples;Min_cycle;Max_cycle;Signal;HPM_P1;HPM_P2
2023/01/07 00:00:12;;;;;;;4.90;3.10;;;;;;;6.49;100.00;96364.28;1030897;28;20116;-70
2023/01/07 00:00:43;;;;;;;4.72;3.47;;;;;;;6.49;100.00;96359.06;1034546;28;20021;-67
2023/01/07 00:01:15;;;;;;;8.68;3.45;;;;;;;6.47;100.00;96355.88;1038659;28;20033;-69
2023/01/07 00:01:45;;;;;;;5.07;3.55;;;;;;;6.48;100.00;96357.50;1034558;28;20033;-68
2023/01/07 00:02:16;;;;;;;3.90;3.15;;;;;;;6.47;100.00;96358.50;1034387;28;20316;-69
2023/01/07 00:02:46;;;;;;;4.93;3.58;;;;;;;6.47;100.00;96354.09;1034863;28;20034;-67
2023/01/07 00:03:17;;;;;;;5.32;3.83;;;;;;;6.44;100.00;96348.50;1026658;28;20039;-68
2023/01/07 00:03:48;;;;;;;4.35;3.35;;;;;;;6.41;100.00;96343.75;1026316;28;20031;-69
2023/01/07 00:04:20;;;;;;;6.65;3.83;;;;;;;6.43;100.00;96363.34;1026514;28;20508;-68
2023/01/07 00:04:50;;;;;;;6.38;4.20;;;;;;;6.43;100.00;96352.13;1026902;28;20050;-69
2023/01/07 00:05:21;;;;;;;5.25;3.83;;;;;;;6.44;100.00;96359.75;1030846;28;20297;-67
2023/01/07 00:05:56;;;;;;;5.65;4.00;;;;;;;6.47;100.00;96350.66;1033975;28;20578;-70
2023/01/07 00:06:32;;;;;;;5.38;3.88;;;;;;;6.45;100.00;96360.53;1038583;28;20029;-67
2023/01/07 00:07:02;;;;;;;4.63;3.70;;;;;;;6.45;100.00;96355.34;1034442;28;20327;-69
2023/01/07 00:07:33;;;;;;;4.55;3.63;;;;;;;6.44;100.00;96354.53;1034385;28;20280;-67
2023/01/07 00:08:03;;;;;;;7.28;3.70;;;;;;;6.47;100.00;96358.50;1031695;28;20073;-69
2023/01/07 00:08:35;;;;;;;4.72;4.03;;;;;;;6.49;100.00;96356.47;1034733;28;20145;-67
2023/01/07 00:09:07;;;;;;;6.43;3.63;;;;;;;6.45;100.00;96344.91;1031403;28;20042;-70
2023/01/07 00:09:38;;;;;;;5.50;3.85;;;;;;;6.51;100.00;96359.66;1031010;28;20277;-67
2023/01/07 00:10:08;;;;;;;5.55;3.83;;;;;;;6.52;100.00;96356.03;1034117;28;20925;-70
2023/01/07 00:10:41;;;;;;;4.38;3.67;;;;;;;6.50;100.00;96347.63;1029716;28;20034;-68
2023/01/07 00:11:15;;;;;;;5.70;3.97;;;;;;;6.46;100.00;96352.50;1026785;28;20289;-69
2023/01/07 00:11:45;;;;;;;4.88;3.58;;;;;;;6.51;100.00;96355.25;1026380;28;20038;-70
2023/01/07 00:12:16;;;;;;;5.63;3.80;;;;;;;6.53;100.00;96352.41;1027000;28;20266;-70
2023/01/07 00:12:46;;;;;;;3.78;3.30;;;;;;;6.50;100.00;96345.03;1034010;28;20053;-69
2023/01/07 00:13:17;;;;;;;5.25;3.67;;;;;;;6.50;100.00;96350.22;1030775;28;20031;-68
2023/01/07 00:13:48;;;;;;;5.28;3.80;;;;;;;6.50;100.00;96347.63;1038637;28;20038;-68
2023/01/07 00:14:18;;;;;;;6.05;3.92;;;;;;;6.52;100.00;96343.00;1033977;28;20030;-69
2023/01/07 00:14:49;;;;;;;5.45;3.60;;;;;;;6.53;100.00;96347.19;1022346;28;20291;-67
2023/01/07 00:15:19;;;;;;;5.28;3.92;;;;;;;6.53;100.00;96344.56;1022555;28;20513;-70
2023/01/07 00:15:50;;;;;;;4.28;3.50;;;;;;;6.49;100.00;96351.25;1025523;28;20106;-69
2023/01/07 00:16:21;;;;;;;5.90;3.65;;;;;;;6.47;100.00;96348.06;1034303;28;20670;-67
2023/01/07 00:16:52;;;;;;;5.45;3.97;;;;;;;6.47;100.00;96342.84;1034754;28;20025;-68
2023/01/07 00:17:22;;;;;;;5.20;3.92;;;;;;;6.48;100.00;96344.47;1030251;28;20747;-69
2023/01/07 00:17:53;;;;;;;4.70;3.50;;;;;;;6.49;100.00;96348.66;1026488;28;20026;-67
2023/01/07 00:18:23;;;;;;;5.72;3.40;;;;;;;6.48;100.00;96342.66;1026372;28;20031;-69
2023/01/07 00:18:55;;;;;;;5.28;3.60;;;;;;;6.49;100.00;96348.66;1034503;28;20040;-68
2023/01/07 00:19:25;;;;;;;5.25;4.25;;;;;;;6.46;100.00;96341.28;1038381;28;20118;-67
2023/01/07 00:19:55;;;;;;;4.40;3.60;;;;;;;6.49;100.00;96338.22;1038637;28;20334;-68
2023/01/07 00:20:26;;;;;;;6.85;3.90;;;;;;;6.49;100.00;96344.22;1038138;28;20120;-69
2023/01/07 00:20:57;;;;;;;5.28;3.92;;;;;;;6.47;100.00;96343.69;1033830;28;20042;-69
2023/01/07 00:21:28;;;;;;;5.03;3.65;;;;;;;6.42;100.00;96329.69;1026399;28;20069;-67
2023/01/07 00:21:58;;;;;;;5.93;3.92;;;;;;;6.48;100.00;96331.44;1018684;29;20773;-67
2023/01/07 00:22:29;;;;;;;4.70;3.80;;;;;;;6.47;100.00;96338.47;1018392;29;20023;-68
2023/01/07 00:22:59;;;;;;;3.90;3.47;;;;;;;6.48;100.00;96339.25;1025885;28;20027;-69
2023/01/07 00:23:30;;;;;;;5.28;3.70;;;;;;;6.44;100.00;96327.66;1030437;28;20022;-68
2023/01/07 00:24:02;;;;;;;4.45;3.40;;;;;;;6.44;100.00;96333.69;1034437;28;20365;-69
2023/01/07 00:24:33;;;;;;;4.72;3.90;;;;;;;6.49;100.00;96344.22;1026042;28;20026;-70
2023/01/07 00:25:03;;;;;;;4.30;3.60;;;;;;;6.48;100.00;96340.03;1026569;28;20278;-72
2023/01/07 00:25:34;;;;;;;5.00;3.60;;;;;;;6.47;100.00;96342.84;1026185;28;20050;-67
2023/01/07 00:26:08;;;;;;;6.57;4.00;;;;;;;6.48;100.00;96339.25;1028404;28;20839;-68
2023/01/07 00:26:39;;;;;;;4.55;3.58;;;;;;;6.42;100.00;96332.31;1038404;28;20030;-68
2023/01/07 00:27:09;;;;;;;5.00;3.92;;;;;;;6.30;100.00;96321.81;1034236;28;20295;-69
2023/01/07 00:27:39;;;;;;;5.28;3.70;;;;;;;6.43;100.00;96344.31;1035149;28;20025;-68
2023/01/07 00:28:10;;;;;;;5.35;4.05;;;;;;;6.43;100.00;96341.72;1030428;28;20105;-66
2023/01/07 00:28:41;;;;;;;5.22;4.35;;;;;;;6.42;100.00;96340.91;1034737;28;20692;-68
2023/01/07 00:29:12;;;;;;;5.65;3.80;;;;;;;6.42;100.00;96342.72;1034455;28;20026;-67
2023/01/07 00:29:42;;;;;;;4.47;3.42;;;;;;;6.42;100.00;96345.34;1034280;28;20643;-71
2023/01/07 00:30:13;;;;;;;4.88;3.53;;;;;;;6.42;100.00;96342.72;1030465;28;20441;-70
2023/01/07 00:30:43;;;;;;;5.68;3.80;;;;;;;6.29;100.00;96321.03;1030403;28;20411;-69
2023/01/07 00:31:16;;;;;;;7.55;3.85;;;;;;;6.42;100.00;96340.13;1034134;28;20080;-67
2023/01/07 00:31:46;;;;;;;4.80;3.78;;;;;;;6.41;100.00;96341.94;1031096;28;20030;-68
2023/01/07 00:32:17;;;;;;;5.03;3.85;;;;;;;6.42;100.00;96340.91;1034450;28;20813;-69
2023/01/07 00:33:03;;;;;;;5.13;4.03;;;;;;;6.38;100.00;96345.78;1034274;28;20092;-71
2023/01/07 00:33:34;;;;;;;4.97;3.58;;;;;;;6.42;100.00;96346.13;1037412;28;20027;-68
2023/01/07 00:34:37;;;;;;;5.40;3.72;;;;;;;6.40;100.00;96342.94;1038772;28;20026;-68
2023/01/07 00:35:21;;;;;;;5.85;3.70;;;;;;;6.42;100.00;96337.53;1036343;28;20562;-68
2023/01/07 00:35:58;;;;;;;4.15;3.38;;;;;;;6.40;100.00;96342.94;1029779;28;20667;-68
2023/01/07 00:36:30;;;;;;;5.00;3.60;;;;;;;6.40;100.00;96339.53;1030227;28;20308;-68
2023/01/07 00:37:50;;;;;;;5.43;3.80;;;;;;;6.42;100.00;96340.13;1030241;28;20691;-69
2023/01/07 00:38:21;;;;;;;4.75;3.30;;;;;;;6.40;100.00;96332.50;1026407;28;20273;-68
2023/01/07 00:39:03;;;;;;;5.38;3.78;;;;;;;6.41;100.00;96333.34;1032937;28;20272;-69
2023/01/07 00:39:33;;;;;;;6.28;4.03;;;;;;;6.38;100.00;96335.34;1026292;28;20046;-69
2023/01/07 00:40:04;;;;;;;5.57;3.92;;;;;;;6.40;100.00;96331.72;1026342;28;20330;-68
2023/01/07 00:40:35;;;;;;;4.28;3.45;;;;;;;6.44;100.00;96332.88;1030119;28;20058;-67
2023/01/07 00:41:05;;;;;;;4.72;3.60;;;;;;;6.41;100.00;96326.31;1030723;28;20022;-70
2023/01/07 00:41:36;;;;;;;4.80;3.45;;;;;;;6.45;100.00;96330.06;1034455;28;20025;-69
2023/01/07 00:43:04;;;;;;;5.40;3.42;;;;;;;6.41;100.00;96328.13;1030330;28;20045;-68
2023/01/07 00:43:34;;;;;;;6.10;3.97;;;;;;;6.45;100.00;96329.25;1025843;28;20281;-69
2023/01/07 00:44:05;;;;;;;5.88;3.72;;;;;;;6.43;100.00;96337.28;1026485;28;20278;-68
2023/01/07 00:44:36;;;;;;;4.97;4.03;;;;;;;6.44;100.00;96332.88;1023134;28;20027;-69
2023/01/07 00:45:08;;;;;;;4.63;3.70;;;;;;;6.41;100.00;96330.72;1023360;28;20027;-67
2023/01/07 00:45:39;;;;;;;5.55;3.97;;;;;;;6.44;100.00;96333.69;1021745;29;20058;-71
2023/01/07 00:46:10;;;;;;;5.20;3.70;;;;;;;6.44;100.00;96328.47;1022764;28;20345;-71
2023/01/07 00:46:41;;;;;;;5.15;3.50;;;;;;;6.42;100.00;96333.09;1026933;28;20026;-68
2023/01/07 00:47:11;;;;;;;6.05;3.60;;;;;;;6.41;100.00;96336.72;1032873;28;20353;-68
2023/01/07 00:47:41;;;;;;;5.72;3.67;;;;;;;6.42;100.00;96334.91;1030098;28;20847;-68
2023/01/07 00:48:12;;;;;;;6.95;4.38;;;;;;;6.42;100.00;96329.69;1030731;28;20033;-69
2023/01/07 00:48:43;;;;;;;4.10;3.50;;;;;;;6.37;100.00;96323.34;1034158;28;20026;-67
2023/01/07 00:49:14;;;;;;;5.72;3.83;;;;;;;6.44;100.00;96330.25;1030621;28;20038;-69
2023/01/07 00:49:45;;;;;;;5.78;4.13;;;;;;;6.43;100.00;96328.69;1034182;28;20781;-69
2023/01/07 00:50:16;;;;;;;5.22;3.60;;;;;;;6.41;100.00;96334.13;1026017;28;20029;-69
2023/01/07 00:50:47;;;;;;;5.88;3.83;;;;;;;6.37;100.00;96331.16;1026721;28;20678;-68
2023/01/07 00:51:17;;;;;;;5.63;4.18;;;;;;;6.37;100.00;96333.78;1030124;28;20088;-69
2023/01/07 00:51:48;;;;;;;6.78;4.32;;;;;;;6.36;100.00;96336.59;1030176;28;20050;-69
2023/01/07 00:52:18;;;;;;;7.00;4.00;;;;;;;6.37;100.00;96332.94;1037405;28;20079;-69
2023/01/07 00:52:49;;;;;;;7.40;4.03;;;;;;;6.38;100.00;96334.56;1042499;28;20124;-68
2023/01/07 00:53:19;;;;;;;5.68;4.03;;;;;;;6.38;100.00;96330.13;1042663;28;20414;-69
2023/01/07 00:53:50;;;;;;;6.10;4.20;;;;;;;6.39;100.00;96328.31;1032508;28;20038;-67
2023/01/07 00:54:20;;;;;;;5.00;3.58;;;;;;;6.40;100.00;96331.72;1026235;28;20077;-67
2023/01/07 00:54:51;;;;;;;4.40;3.70;;;;;;;6.38;100.00;96331.97;1022700;28;20035;-68
2023/01/07 00:55:21;;;;;;;7.05;4.18;;;;;;;6.41;100.00;96333.34;1022063;28;20155;-71
2023/01/07 00:55:52;;;;;;;4.95;3.63;;;;;;;6.38;100.00;96329.34;1029493;28;20069;-68
2023/01/07 00:56:22;;;;;;;5.68;3.58;;;;;;;6.40;100.00;96331.72;1030418;28;20027;-68
2023/01/07 00:56:53;;;;;;;5.70;4.15;;;;;;;6.38;100.00;96330.13;1034490;28;20030;-69
2023/01/07 00:57:23;;;;;;;6.22;3.70;;;;;;;6.37;100.00;96331.16;1037231;28;20490;-69
2023/01/07 00:57:54;;;;;;;5.28;3.90;;;;;;;6.37;100.00;96335.56;1038390;28;20672;-69
2023/01/07 00:58:25;;;;;;;5.30;3.92;;;;;;;6.30;100.00;96322.63;1034338;28;20784;-67
2023/01/07 00:58:55;;;;;;;5.03;3.95;;;;;;;6.38;100.00;96329.34;1030537;28;20026;-70
2023/01/07 00:59:26;;;;;;;5.03;3.67;;;;;;;6.37;100.00;96325.97;1026291;28;20023;-70
2023/01/07 00:59:56;;;;;;;5.50;3.83;;;;;;;6.40;100.00;96329.13;1022494;28;20031;-68
2023/01/07 01:00:26;;;;;;;6.15;3.80;;;;;;;6.24;100.00;96309.69;1022524;28;20050;-67
2023/01/07 01:00:58;;;;;;;5.35;3.50;;;;;;;6.32;100.00;96325.81;1026354;28;20046;-71
2023/01/07 01:01:28;;;;;;;6.20;3.80;;;;;;;6.33;100.00;96330.00;1026174;28;20122;-67
2023/01/07 01:01:59;;;;;;;6.30;3.60;;;;;;;6.34;100.00;96329.00;1026319;28;20273;-69
2023/01/07 01:02:29;;;;;;;3.85;3.45;;;;;;;6.34;100.00;96329.00;1026497;28;20042;-69
2023/01/07 01:03:00;;;;;;;5.82;4.38;;;;;;;6.39;100.00;96325.72;1034575;28;20037;-70
2023/01/07 01:03:31;;;;;;;5.63;3.72;;;;;;;6.31;100.00;96326.84;1034287;28;20030;-68
2023/01/07 01:04:01;;;;;;;5.63;3.75;;;;;;;6.36;100.00;96332.16;1034173;28;20030;-68
2023/01/07 01:04:32;;;;;;;5.68;3.97;;;;;;;6.39;100.00;96328.31;1034827;28;20299;-70
2023/01/07 01:05:03;;;;;;;5.65;4.10;;;;;;;6.38;100.00;96330.13;1034350;28;20025;-67
2023/01/07 01:05:33;;;;;;;4.82;4.13;;;;;;;6.40;100.00;96331.72;1033881;28;20117;-68
2023/01/07 01:06:10;;;;;;;12.52;4.97;;;;;;;6.37;100.00;96330.34;1030022;28;20025;-68
2023/01/07 01:06:40;;;;;;;5.65;3.95;;;;;;;6.36;100.00;96324.34;1030321;28;20466;-68
2023/01/07 01:07:11;;;;;;;6.57;4.38;;;;;;;6.36;100.00;96329.56;1030222;28;20319;-67
2023/01/07 01:07:41;;;;;;;6.45;4.05;;;;;;;6.36;100.00;96326.94;1031931;28;20033;-70
2023/01/07 01:08:12;;;;;;;4.82;4.00;;;;;;;6.36;100.00;96324.34;1034221;28;20479;-68
2023/01/07 01:08:43;;;;;;;7.85;4.38;;;;;;;6.41;100.00;96328.13;1034509;28;20029;-67
2023/01/07 01:09:14;;;;;;;5.72;3.92;;;;;;;6.41;100.00;96328.13;1032655;28;20045;-68
2023/01/07 01:09:44;;;;;;;4.78;3.58;;;;;;;6.40;100.00;96326.50;1038792;28;20299;-69
2023/01/07 01:10:16;;;;;;;5.88;3.95;;;;;;;6.38;100.00;96324.94;1042495;28;20032;-67
2023/01/07 01:10:47;;;;;;;6.35;4.30;;;;;;;6.36;100.00;96331.38;1032389;28;20140;-69
2023/01/07 01:11:17;;;;;;;5.03;3.63;;;;;;;6.39;100.00;96325.72;1026283;28;20775;-69
2023/01/07 01:11:47;;;;;;;6.43;3.78;;;;;;;6.40;100.00;96326.50;1022100;29;20526;-69
2023/01/07 01:12:18;;;;;;;5.78;4.07;;;;;;;6.41;100.00;96325.50;1022372;28;20031;-67
2023/01/07 01:12:48;;;;;;;6.65;3.95;;;;;;;6.38;100.00;96324.94;1029559;28;20030;-69
2023/01/07 01:13:19;;;;;;;6.85;3.70;;;;;;;6.37;100.00;96332.94;1034285;28;20530;-68
2023/01/07 01:13:49;;;;;;;5.07;3.85;;;;;;;6.36;100.00;96326.94;1038449;28;20087;-71
2023/01/07 01:14:20;;;;;;;5.22;3.97;;;;;;;6.37;100.00;96333.78;1038187;28;20040;-68
2023/01/07 01:14:50;;;;;;;5.70;3.58;;;;;;;6.38;100.00;96329.34;1038098;28;20029;-70
2023/01/07 01:15:21;;;;;;;5.53;4.15;;;;;;;6.38;100.00;96332.75;1034246;28;20040;-68
2023/01/07 01:15:51;;;;;;;5.97;4.28;;;;;;;6.38;100.00;96331.97;1025321;28;20074;-69
2023/01/07 01:16:22;;;;;;;6.28;4.15;;;;;;;6.42;100.00;96329.69;1026123;28;20038;-68
2023/01/07 01:16:52;;;;;;;6.65;3.83;;;;;;;6.42;100.00;96329.69;1026212;28;20094;-67
2023/01/07 01:17:22;;;;;;;5.90;3.55;;;;;;;6.38;100.00;96324.94;1030223;28;20479;-68
2023/01/07 01:17:53;;;;;;;5.70;3.97;;;;;;;6.45;100.00;96329.25;1030280;28;20034;-68
2023/01/07 01:18:23;;;;;;;9.13;3.55;;;;;;;6.43;100.00;96326.88;1030135;28;20097;-70
2023/01/07 01:18:54;;;;;;;7.18;4.55;;;;;;;6.41;100.00;96330.72;1030079;28;20042;-71
2023/01/07 01:19:24;;;;;;;6.22;3.65;;;;;;;6.40;100.00;96332.50;1030153;28;20026;-70
2023/01/07 01:19:55;;;;;;;6.38;3.78;;;;;;;6.41;100.00;96330.72;1038444;28;20471;-68
2023/01/07 01:20:25;;;;;;;5.82;3.85;;;;;;;6.37;100.00;96331.16;1034017;28;20044;-68
2023/01/07 01:20:56;;;;;;;5.20;3.80;;;;;;;6.36;100.00;96326.94;1038274;28;20730;-68
2023/01/07 01:21:26;;;;;;;5.15;4.20;;;;;;;6.38;100.00;96324.94;1025757;28;20030;-69
2023/01/07 01:21:57;;;;;;;5.40;4.07;;;;;;;6.37;100.00;96328.56;1026288;28;20042;-70
2023/01/07 01:22:27;;;;;;;5.65;3.92;;;;;;;6.36;100.00;96326.94;1026045;28;20036;-69
2023/01/07 01:22:58;;;;;;;7.10;3.88;;;;;;;6.36;100.00;96323.56;1022126;28;20942;-68
2023/01/07 01:23:28;;;;;;;6.18;4.07;;;;;;;6.38;100.00;96324.94;1034217;28;20129;-68
2023/01/07 01:23:58;;;;;;;5.93;4.20;;;;;;;6.35;100.00;96325.38;1034310;28;20037;-69
2023/01/07 01:24:29;;;;;;;5.95;4.03;;;;;;;6.34;100.00;96323.78;1031801;28;20038;-68
2023/01/07 01:24:59;;;;;;;6.28;3.67;;;;;;;6.33;100.00;96326.59;1038441;28;20033;-68
2023/01/07 01:25:30;;;;;;;7.63;4.50;;;;;;;6.36;100.00;96324.34;1033468;28;20041;-68
2023/01/07 01:26:12;;;;;;;5.68;3.97;;;;;;;6.32;100.00;96320.59;1030592;28;20061;-70
2023/01/07 01:26:42;;;;;;;7.00;4.45;;;;;;;6.34;100.00;96329.00;1026264;28;20023;-68
2023/01/07 01:27:13;;;;;;;4.63;3.70;;;;;;;6.37;100.00;96328.56;1027535;28;20274;-69
2023/01/07 01:27:43;;;;;;;5.05;3.83;;;;;;;6.36;100.00;96321.72;1027255;28;20038;-68
2023/01/07 01:28:14;;;;;;;5.63;4.00;;;;;;;6.32;100.00;96323.19;1030210;28;20470;-67
2023/01/07 01:28:44;;;;;;;5.95;4.15;;;;;;;6.34;100.00;96326.41;1034391;28;20034;-71
2023/01/07 01:29:15;;;;;;;5.45;3.65;;;;;;;6.34;100.00;96323.78;1033974;28;20041;-71
2023/01/07 01:29:45;;;;;;;6.03;4.10;;;;;;;6.34;100.00;96321.19;1033098;28;20014;-68
2023/01/07 01:30:16;;;;;;;6.03;4.30;;;;;;;6.33;100.00;96322.16;1038557;28;20033;-67
2023/01/07 01:30:53;;;;;;;4.70;3.72;;;;;;;6.25;100.00;96312.06;1030047;28;20097;-68
2023/01/07 01:31:24;;;;;;;5.85;4.18;;;;;;;6.34;100.00;96326.41;1029738;28;20042;-70
2023/01/07 01:31:54;;;;;;;6.28;4.00;;;;;;;6.33;100.00;96322.16;1031567;28;20279;-69
2023/01/07 01:32:25;;;;;;;5.82;4.10;;;;;;;6.29;100.00;96321.03;1031081;28;20031;-69
2023/01/07 01:32:55;;;;;;;6.95;3.65;;;;;;;6.34;100.00;96328.22;1029005;28;20166;-69
2023/01/07 01:33:26;;;;;;;5.43;3.80;;;;;;;6.33;100.00;96329.19;1029891;28;20038;-69
2023/01/07 01:33:56;;;;;;;5.97;3.65;;;;;;;6.32;100.00;96323.19;1034308;28;20037;-68
2023/01/07 01:34:27;;;;;;;5.68;3.65;;;;;;;6.32;100.00;96325.81;1034393;28;20048;-69
2023/01/07 01:34:57;;;;;;;4.97;3.97;;;;;;;6.32;100.00;96328.41;1038186;28;20499;-67
2023/01/07 01:35:28;;;;;;;6.88;4.15;;;;;;;6.33;100.00;96324.00;1033538;28;20029;-65
2023/01/07 01:36:01;;;;;;;5.63;4.07;;;;;;;6.31;100.00;96320.81;1034232;28;20034;-68
2023/01/07 01:36:32;;;;;;;6.68;3.70;;;;;;;6.29;100.00;96325.47;1034179;28;20033;-68
2023/01/07 01:37:02;;;;;;;5.22;3.83;;;;;;;6.31;100.00;96329.44;1027431;28;20347;-67
2023/01/07 01:37:32;;;;;;;5.63;3.97;;;;;;;6.31;100.00;96326.84;1025846;28;20110;-68
2023/01/07 01:38:03;;;;;;;6.05;4.22;;;;;;;6.31;100.00;96329.44;1026646;28;20058;-72
2023/01/07 01:38:33;;;;;;;5.10;3.63;;;;;;;6.33;100.00;96324.00;1034343;28;20030;-70
2023/01/07 01:39:04;;;;;;;5.07;3.75;;;;;;;6.31;100.00;96326.84;1030239;28;20036;-68
2023/01/07 01:39:34;;;;;;;4.82;3.67;;;;;;;6.32;100.00;96327.63;1030064;28;20041;-66
2023/01/07 01:40:05;;;;;;;5.45;4.10;;;;;;;6.26;100.00;96315.47;1030070;28;20033;-68
2023/01/07 01:40:36;;;;;;;5.45;3.97;;;;;;;6.30;100.00;96316.59;1026417;28;20731;-67
2023/01/07 01:41:06;;;;;;;6.90;4.03;;;;;;;6.28;100.00;96319.44;1026496;28;20296;-68
2023/01/07 01:41:37;;;;;;;4.55;3.97;;;;;;;6.29;100.00;96323.63;1025818;28;20026;-69
2023/01/07 01:42:29;;;;;;;7.55;4.00;;;;;;;6.31;100.00;96315.63;1026027;28;20085;-69
2023/01/07 01:42:59;;;;;;;4.20;3.70;;;;;;;6.31;100.00;96321.63;1027524;28;20473;-71
2023/01/07 01:43:37;;;;;;;7.78;4.38;;;;;;;6.32;100.00;96320.59;1032941;28;20267;-68
2023/01/07 01:44:50;;;;;;;6.03;3.60;;;;;;;6.33;100.00;96322.16;1030296;28;20030;-69
2023/01/07 01:45:20;;;;;;;5.93;3.80;;;;;;;6.35;100.00;96312.34;1033917;28;20288;-68
2023/01/07 01:45:51;;;;;;;6.38;4.20;;;;;;;6.27;100.00;96307.44;1034624;28;20335;-68
2023/01/07 01:46:39;;;;;;;6.20;4.30;;;;;;;6.30;100.00;96317.41;1033968;28;20129;-69
2023/01/07 01:47:39;;;;;;;5.63;3.60;;;;;;;6.31;100.00;96313.00;1025747;28;20266;-70
2023/01/07 01:48:10;;;;;;;4.82;3.58;;;;;;;6.28;100.00;96309.03;1024360;28;20292;-67
2023/01/07 01:48:49;;;;;;;7.18;4.30;;;;;;;6.30;100.00;96312.19;1025942;28;20037;-68
2023/01/07 01:49:26;;;;;;;5.72;3.78;;;;;;;6.28;100.00;96311.63;1025869;28;20117;-69
2023/01/07 01:49:57;;;;;;;4.60;3.17;;;;;;;6.28;100.00;96311.63;1021785;29;20267;-68
2023/01/07 01:50:39;;;;;;;5.00;3.92;;;;;;;6.30;100.00;96306.97;1021912;28;20277;-69
2023/01/07 01:51:10;;;;;;;6.38;3.70;;;;;;;6.29;100.00;96313.22;1020508;29;20070;-67
2023/01/07 01:51:41;;;;;;;5.45;3.22;;;;;;;6.31;100.00;96313.00;1023579;28;20278;-66
2023/01/07 01:52:13;;;;;;;5.07;3.88;;;;;;;6.26;100.00;96305.84;1022161;29;20019;-67
2023/01/07 01:52:43;;;;;;;5.75;3.88;;;;;;;6.30;100.00;96306.97;1022282;28;20595;-67
2023/01/07 01:53:17;;;;;;;7.25;3.88;;;;;;;6.31;100.00;96313.00;1026525;28;20312;-68
2023/01/07 01:53:49;;;;;;;4.88;3.85;;;;;;;6.31;100.00;96311.19;1027320;28;20026;-71
2023/01/07 01:54:20;;;;;;;5.10;3.50;;;;;;;6.31;100.00;96311.19;1026862;28;21022;-70
2023/01/07 01:54:54;;;;;;;6.88;4.05;;;;;;;6.28;100.00;96309.03;1026474;28;20301;-68
2023/01/07 01:55:39;;;;;;;6.53;3.70;;;;;;;6.33;100.00;96310.97;1019139;28;20382;-69
2023/01/07 01:56:18;;;;;;;5.47;3.95;;;;;;;6.31;100.00;96315.63;1022134;29;20754;-70
2023/01/07 01:56:49;;;;;;;5.85;3.85;;;;;;;6.32;100.00;96312.78;1021629;29;20278;-72
2023/01/07 01:57:19;;;;;;;6.55;3.75;;;;;;;6.33;100.00;96308.34;1020225;28;20259;-68
2023/01/07 01:57:52;;;;;;;5.57;3.53;;;;;;;6.32;100.00;96307.56;1017566;28;20028;-70
2023/01/07 01:58:33;;;;;;;4.93;3.58;;;;;;;6.30;100.00;96308.78;1017741;28;20019;-66
2023/01/07 01:59:05;;;;;;;4.43;3.42;;;;;;;6.26;100.00;96305.84;1024628;28;20398;-69
2023/01/07 01:59:37;;;;;;;4.90;3.40;;;;;;;6.31;100.00;96308.59;1026023;28;20254;-68
2023/01/07 02:00:09;;;;;;;5.13;3.15;;;;;;;6.33;100.00;96310.97;1030128;28;20265;-68
2023/01/07 02:00:40;;;;;;;5.80;3.20;;;;;;;6.33;100.00;96311.75;1029756;28;20371;-70
2023/01/07 02:01:11;;;;;;;4.88;3.38;;;;;;;6.32;100.00;96307.56;1030120;28;20347;-73
2023/01/07 02:01:41;;;;;;;5.05;3.30;;;;;;;6.32;100.00;96306.78;1021934;29;20047;-68
2023/01/07 02:02:13;;;;;;;6.45;3.80;;;;;;;6.31;100.00;96311.19;1022131;28;20030;-72
2023/01/07 02:02:46;;;;;;;5.18;3.60;;;;;;;6.26;100.00;96311.03;1030234;28;20031;-71
2023/01/07 02:03:18;;;;;;;4.32;3.03;;;;;;;6.29;100.00;96308.00;1031257;28;20272;-70
2023/01/07 02:03:48;;;;;;;5.18;3.83;;;;;;;6.28;100.00;96306.41;1030090;28;20269;-68
2023/01/07 02:04:20;;;;;;;4.63;3.55;;;;;;;6.30;100.00;96308.78;1025807;28;20262;-68
2023/01/07 02:04:50;;;;;;;5.60;3.95;;;;;;;6.31;100.00;96308.59;1018560;29;20038;-69
2023/01/07 02:05:20;;;;;;;4.68;3.80;;;;;;;6.33;100.00;96313.56;1022492;28;20277;-68
2023/01/07 02:05:51;;;;;;;4.40;3.35;;;;;;;6.28;100.00;96309.03;1025377;28;20030;-69
2023/01/07 02:06:25;;;;;;;5.53;3.72;;;;;;;6.27;100.00;96307.44;1026072;28;20023;-67
2023/01/07 02:07:09;;;;;;;6.07;3.95;;;;;;;6.26;100.00;96305.84;1022168;28;20481;-68
2023/01/07 02:07:39;;;;;;;6.60;4.38;;;;;;;6.25;100.00;96308.69;1025256;28;20270;-67
2023/01/07 02:08:10;;;;;;;5.55;4.05;;;;;;;6.25;100.00;96303.47;1026124;28;20250;-70
2023/01/07 02:08:41;;;;;;;6.20;4.13;;;;;;;6.23;100.00;96300.28;1029769;28;20029;-67
2023/01/07 02:09:11;;;;;;;6.53;3.90;;;;;;;6.22;100.00;96299.47;1032758;28;20103;-68
2023/01/07 02:09:42;;;;;;;7.10;4.05;;;;;;;6.17;100.00;96294.16;1042407;28;20059;-68
2023/01/07 02:10:17;;;;;;;6.28;4.18;;;;;;;6.22;100.00;96296.88;1038280;28;20458;-67
2023/01/07 02:11:03;;;;;;;6.53;4.07;;;;;;;6.24;100.00;96299.28;1029270;28;20139;-68
2023/01/07 02:12:08;;;;;;;5.32;3.90;;;;;;;6.25;100.00;96300.84;1022014;29;20898;-68
2023/01/07 02:13:03;;;;;;;4.78;3.80;;;;;;;6.23;100.00;96298.47;1029625;28;20272;-70
2023/01/07 02:13:52;;;;;;;5.85;4.18;;;;;;;6.22;100.00;96299.47;1041916;28;20313;-71
2023/01/07 02:14:54;;;;;;;6.68;4.32;;;;;;;6.21;100.00;96297.09;1036313;28;20322;-68
2023/01/07 02:15:39;;;;;;;5.88;3.72;;;;;;;6.20;100.00;96296.28;1030325;28;20246;-70
2023/01/07 02:16:19;;;;;;;5.93;3.88;;;;;;;6.19;100.00;96297.31;1033217;28;20272;-70
2023/01/07 02:16:58;;;;;;;6.05;3.72;;;;;;;6.21;100.00;96291.91;1028382;28;20285;-68
2023/01/07 02:17:47;;;;;;;6.47;3.90;;;;;;;6.20;100.00;96296.28;1022910;28;20472;-68
2023/01/07 02:18:40;;;;;;;8.68;3.63;;;;;;;6.20;100.00;96298.91;1027117;28;20246;-69
2023/01/07 02:19:34;;;;;;;4.68;3.65;;;;;;;6.19;100.00;96299.91;1034086;28;20316;-67
2023/01/07 02:20:13;;;;;;;9.13;3.72;;;;;;;6.18;100.00;96293.13;1042965;28;20275;-68
2023/01/07 02:21:11;;;;;;;7.28;3.60;;;;;;;6.19;100.00;96294.72;1042779;28;20274;-67
2023/01/07 02:22:00;;;;;;;5.15;3.38;;;;;;;6.19;100.00;96292.09;1038772;28;21139;-70
2023/01/07 02:22:37;;;;;;;7.55;3.65;;;;;;;6.19;100.00;96289.50;1039010;28;20252;-68
2023/01/07 02:23:22;;;;;;;6.07;3.83;;;;;;;6.18;100.00;96287.91;1035724;28;20592;-67
2023/01/07 02:23:52;;;;;;;5.00;3.80;;;;;;;6.20;100.00;96291.06;1035161;28;20295;-70
2023/01/07 02:24:49;;;;;;;4.63;3.42;;;;;;;6.18;100.00;96292.34;1035523;28;20260;-69
2023/01/07 02:25:29;;;;;;;7.93;4.40;;;;;;;6.17;100.00;96291.53;1031898;28;20035;-68
2023/01/07 02:26:11;;;;;;;5.78;3.65;;;;;;;6.19;100.00;96286.91;1035403;28;20334;-67
2023/01/07 02:27:12;;;;;;;6.30;3.78;;;;;;;6.17;100.00;96291.53;1040615;28;20260;-69
2023/01/07 02:27:48;;;;;;;;;;;;;;;6.17;100.00;96286.34;1043664;28;20338;-68
2023/01/07 02:28:40;;;;;;;4.75;3.13;;;;;;;6.19;100.00;96292.09;1035744;28;19912;-70
2023/01/07 02:29:29;;;;;;;4.57;3.50;;;;;;;6.24;100.00;96292.25;1031641;28;20255;-70
2023/01/07 02:30:48;;;;;;;4.85;3.35;;;;;;;6.22;100.00;96283.06;1037011;28;20747;-68
2023/01/07 02:31:36;;;;;;;4.57;3.40;;;;;;;6.23;100.00;96290.63;1041454;28;20278;-68
2023/01/07 02:32:22;;;;;;;5.32;3.47;;;;;;;6.24;100.00;96287.03;1031573;28;20344;-68
2023/01/07 02:33:16;;;;;;;5.20;3.50;;;;;;;6.19;100.00;96273.88;1031808;28;20253;-70
2023/01/07 02:34:16;;;;;;;5.32;3.50;;;;;;;6.21;100.00;96271.84;1033506;28;20262;-67
2023/01/07 02:35:21;;;;;;;4.53;3.45;;;;;;;6.21;100.00;96279.66;1035278;28;20297;-67
2023/01/07 02:36:16;;;;;;;4.57;3.28;;;;;;;6.22;100.00;96278.63;1031123;28;20026;-68
2023/01/07 02:36:48;;;;;;;4.80;3.42;;;;;;;6.22;100.00;96276.03;1028403;28;20652;-68
2023/01/07 02:37:38;;;;;;;5.50;3.65;;;;;;;6.23;100.00;96280.22;1028987;28;20866;-70
2023/01/07 02:38:19;;;;;;;4.15;3.30;;;;;;;6.25;100.00;96272.97;1028073;28;20732;-67
2023/01/07 02:39:16;;;;;;;4.82;3.72;;;;;;;6.23;100.00;96280.22;1032765;28;20281;-66
2023/01/07 02:39:53;;;;;;;5.43;3.70;;;;;;;6.21;100.00;96274.44;1034903;28;20345;-69
2023/01/07 02:40:54;;;;;;;4.50;3.22;;;;;;;6.21;100.00;96271.84;1038378;28;20280;-69
2023/01/07 02:41:49;;;;;;;4.93;3.22;;;;;;;6.24;100.00;96275.81;1035843;28;20276;-68
2023/01/07 02:42:45;;;;;;;4.25;3.35;;;;;;;6.25;100.00;96272.19;1027640;28;20274;-70
2023/01/07 02:43:21;;;;;;;5.05;3.72;;;;;;;6.25;100.00;96261.78;1031759;28;20304;-70
2023/01/07 02:43:53;;;;;;;6.15;3.63;;;;;;;6.23;100.00;96275.00;1030970;28;20266;-69
2023/01/07 02:44:48;;;;;;;5.15;3.67;;;;;;;6.25;100.00;96265.16;1035707;28;20323;-70